Skip Navigation Links Skip Navigation Links

Current Weather

Schaumburg Regional, Chicago/Schaumburg, Ill.

For information only: do not use for flight planning or navigation.
Latest weather
Observation time Saturday, August 24, 2019 11:55 PM CDT
Local time Sunday, August 25, 2019 12:10 AM CDT
Flight conditions Visual Meteorological Conditions
Winds
Wind direction East-Southeast (110°)
Wind speed 5 mph
Visibility 10 mi.
Sky condition
Ceiling unlimited
Cloud layer scattered clouds 4,400 ft.
Temperature 64°F
Dewpoint 58°F
Altimeter 30.20 in.Hg
Derived measurements
Relative humidity 80%
Density altitude 1025 ft.
Remarks
Fully automated report.
Automated weather observing station with precipitation discriminator.
METAR K06C 250455Z AUTO 11004KT 10SM SCT044 18/14 A3020 RMK AO2 T01770142

Settings

Location code

InnerDrive.Weather 4.0.6770.0 Release CLR 4.0.30319.42000
Copyright ©2018 Inner Drive Technology. All rights reserved. Portions Copyright ©1986-2018 David Braverman.

Find weather

Site navigation


Skip Navigation Links

Place info

Page info

PayPal - The safer, easier way to pay online!

Return home.

Copyright ©2019 Inner Drive Technology. Purveyors of fine, hand-crafted computer software. Page printed 2019-08-25T05:10:25 UTC.